Time;durP1;ratioP1;P1;durP2;ratioP2;P2;SDS_P1;SDS_P2;PMS_P1;PMS_P2;Temp;Humidity;BMP_temperature;BMP_pressure;BME280_temperature;BME280_humidity;BME280_pressure;Samples;Min_cycle;Max_cycle;Signal;HPM_P1;HPM_P2
2023/09/30 00:02:16;;;;;;;5.68;3.00;;;;;14.40;95030.00;;;;7394762;19;20167;-79
2023/09/30 00:04:51;;;;;;;4.95;2.60;;;;;14.40;95036.00;;;;7396855;19;20161;-79
2023/09/30 00:07:39;;;;;;;4.82;2.75;;;;;14.40;95032.00;;;;7394543;19;20203;-79
2023/09/30 00:10:14;;;;;;;6.05;2.72;;;;;14.40;95023.00;;;;7394702;19;20153;-79
2023/09/30 00:12:49;;;;;;;7.32;3.00;;;;;14.40;95029.00;;;;7396152;19;20139;-78
2023/09/30 00:15:17;;;;;;;6.90;2.75;;;;;14.50;95024.00;;;;7396541;19;20141;-79
2023/09/30 00:17:51;;;;;;;6.22;2.60;;;;;14.40;95021.00;;;;7394442;19;20132;-79
2023/09/30 00:20:25;;;;;;;3.92;2.38;;;;;14.40;95015.00;;;;7397130;19;20311;-79
2023/09/30 00:23:01;;;;;;;4.97;2.50;;;;;14.40;95015.00;;;;7396352;19;20144;-79
2023/09/30 00:25:42;;;;;;;5.65;2.90;;;;;14.40;95014.00;;;;7393113;19;20200;-79
2023/09/30 00:28:17;;;;;;;3.83;2.60;;;;;14.40;95022.00;;;;7396335;19;20121;-79
2023/09/30 00:30:51;;;;;;;4.75;2.53;;;;;14.40;95025.00;;;;7394794;19;20229;-79
2023/09/30 00:33:26;;;;;;;6.05;3.05;;;;;14.40;95021.00;;;;7395561;19;20651;-80
2023/09/30 00:35:54;;;;;;;3.88;2.25;;;;;14.40;95016.00;;;;7394911;19;20144;-79
2023/09/30 00:38:28;;;;;;;7.47;2.90;;;;;14.50;95023.00;;;;7395206;19;20592;-79
2023/09/30 00:40:56;;;;;;;6.88;2.78;;;;;14.50;95029.00;;;;7393816;19;20516;-78
2023/09/30 00:43:31;;;;;;;7.75;2.88;;;;;14.50;95027.00;;;;7396028;19;20141;-79
2023/09/30 00:46:14;;;;;;;4.05;2.67;;;;;14.40;95035.00;;;;7395493;19;20133;-80
2023/09/30 00:48:50;;;;;;;4.72;2.25;;;;;14.40;95037.00;;;;7397301;19;20203;-80
2023/09/30 00:51:28;;;;;;;4.45;2.50;;;;;14.50;95033.00;;;;7394478;19;20145;-79
2023/09/30 00:54:04;;;;;;;4.43;2.38;;;;;14.50;95029.00;;;;7396169;19;20183;-79
2023/09/30 00:56:45;;;;;;;7.50;2.58;;;;;14.50;95027.00;;;;7395523;19;20132;-79
2023/09/30 00:59:14;;;;;;;3.83;2.58;;;;;14.50;95032.00;;;;7395638;19;20580;-79
2023/09/30 01:01:57;;;;;;;3.92;2.45;;;;;14.40;95026.00;;;;7400478;19;20120;-79
2023/09/30 01:04:36;;;;;;;4.13;2.60;;;;;14.50;95024.00;;;;7399716;19;20152;-73
2023/09/30 01:07:11;;;;;;;5.18;2.85;;;;;14.50;95027.00;;;;7399508;19;20324;-73
2023/09/30 01:09:39;;;;;;;5.50;3.58;;;;;14.50;95021.00;;;;7399185;19;20881;-74
2023/09/30 01:12:14;;;;;;;6.97;3.05;;;;;14.50;95027.00;;;;7401938;19;20487;-74
2023/09/30 01:14:42;;;;;;;5.07;2.92;;;;;14.50;95028.00;;;;7400266;19;20133;-73
2023/09/30 01:17:16;;;;;;;4.93;3.13;;;;;14.60;95030.00;;;;7398952;19;20140;-74
2023/09/30 01:19:44;;;;;;;4.38;3.00;;;;;14.50;95032.00;;;;7400560;19;20121;-73
2023/09/30 01:22:13;;;;;;;4.28;3.10;;;;;14.50;95031.00;;;;7399855;19;21147;-74
2023/09/30 01:24:47;;;;;;;5.05;3.00;;;;;14.50;95028.00;;;;7399847;19;20147;-75
2023/09/30 01:27:22;;;;;;;4.93;3.00;;;;;14.50;95030.00;;;;7401375;19;20541;-74
2023/09/30 01:29:50;;;;;;;4.30;2.80;;;;;14.40;95025.00;;;;7398562;19;20153;-73
2023/09/30 01:32:18;;;;;;;4.57;3.00;;;;;14.40;95031.00;;;;7400527;19;20153;-74
2023/09/30 01:34:53;;;;;;;7.75;3.60;;;;;14.20;95033.00;;;;7401837;19;20152;-74
2023/09/30 01:37:21;;;;;;;6.90;3.58;;;;;14.20;95034.00;;;;7400012;19;20618;-74
2023/09/30 01:39:50;;;;;;;5.32;3.50;;;;;14.40;95027.00;;;;7398476;19;20156;-74
2023/09/30 01:42:25;;;;;;;12.05;4.07;;;;;14.20;95028.00;;;;7399816;19;20140;-74
2023/09/30 01:44:54;;;;;;;7.82;3.80;;;;;14.10;95028.00;;;;7397891;19;20136;-74
2023/09/30 01:47:29;;;;;;;4.38;3.10;;;;;14.20;95033.00;;;;7400813;19;20618;-74
2023/09/30 01:49:57;;;;;;;11.95;3.40;;;;;14.10;95025.00;;;;7398222;19;20160;-73
2023/09/30 01:52:32;;;;;;;5.53;2.97;;;;;14.00;95025.00;;;;7398887;19;20746;-73
2023/09/30 01:55:07;;;;;;;5.85;3.28;;;;;14.00;95017.00;;;;7399828;19;20148;-75
2023/09/30 01:57:35;;;;;;;7.68;3.58;;;;;13.90;95028.00;;;;7397261;19;20165;-72
2023/09/30 02:00:10;;;;;;;5.53;3.40;;;;;13.90;95026.00;;;;7399701;19;20143;-74
2023/09/30 02:02:45;;;;;;;4.97;3.25;;;;;13.80;95030.00;;;;7397921;19;20172;-74
2023/09/30 02:05:20;;;;;;;6.97;3.50;;;;;13.70;95032.00;;;;7397937;19;20155;-74
2023/09/30 02:07:56;;;;;;;5.00;3.60;;;;;13.70;95030.00;;;;7397986;19;20653;-73
2023/09/30 02:10:24;;;;;;;7.25;3.83;;;;;13.80;95032.00;;;;7398397;19;20128;-73
2023/09/30 02:12:59;;;;;;;8.43;3.67;;;;;13.80;95028.00;;;;7396944;19;20503;-80
2023/09/30 02:15:27;;;;;;;7.35;3.30;;;;;13.80;95022.00;;;;7397312;19;20149;-78
2023/09/30 02:18:03;;;;;;;5.80;3.20;;;;;13.80;95027.00;;;;7397957;19;20618;-79
2023/09/30 02:20:32;;;;;;;6.10;3.50;;;;;13.90;95032.00;;;;7398754;19;20133;-79
2023/09/30 02:23:10;;;;;;;7.57;3.35;;;;;13.80;95020.00;;;;7397862;19;20526;-79
2023/09/30 02:25:39;;;;;;;6.45;3.20;;;;;13.80;95018.00;;;;7397080;19;20149;-79
2023/09/30 02:28:14;;;;;;;5.30;3.10;;;;;13.80;95024.00;;;;7397006;19;20140;-81
2023/09/30 02:30:42;;;;;;;10.35;3.45;;;;;13.80;95027.00;;;;7398851;19;20170;-78
2023/09/30 02:33:16;;;;;;;4.82;3.30;;;;;13.80;95019.00;;;;7397309;19;20151;-79
2023/09/30 02:35:51;;;;;;;5.60;3.47;;;;;13.80;95030.00;;;;7396556;19;20158;-80
2023/09/30 02:38:26;;;;;;;7.32;4.10;;;;;13.80;95027.00;;;;7398687;19;20219;-79
2023/09/30 02:41:02;;;;;;;7.35;3.53;;;;;13.70;95019.00;;;;7398146;19;20144;-79
2023/09/30 02:43:38;;;;;;;6.65;4.07;;;;;13.70;95011.00;;;;7397336;19;20140;-79
2023/09/30 02:46:06;;;;;;;4.70;3.40;;;;;13.60;95020.00;;;;7394538;19;20160;-80
2023/09/30 02:48:41;;;;;;;5.13;3.65;;;;;13.60;95034.00;;;;7397666;19;20236;-79
2023/09/30 02:51:18;;;;;;;8.25;3.83;;;;;13.60;95034.00;;;;7397817;19;20137;-80
2023/09/30 02:53:53;;;;;;;5.47;3.38;;;;;13.60;95041.00;;;;7396655;19;20196;-78
2023/09/30 02:56:23;;;;;;;6.85;3.80;;;;;13.60;95038.00;;;;7398898;19;20129;-79
2023/09/30 02:58:59;;;;;;;7.75;4.03;;;;;13.60;95042.00;;;;7396664;19;20614;-80
2023/09/30 03:01:34;;;;;;;5.25;3.65;;;;;13.60;95046.00;;;;7395397;19;20140;-79
2023/09/30 03:04:06;;;;;;;7.28;3.30;;;;;13.60;95044.00;;;;7396919;19;20478;-79
2023/09/30 03:06:42;;;;;;;5.55;3.10;;;;;13.60;95052.00;;;;7394483;19;20149;-80
2023/09/30 03:09:14;;;;;;;8.05;4.05;;;;;13.50;95046.00;;;;7397050;19;20140;-80
2023/09/30 03:11:49;;;;;;;6.03;3.42;;;;;13.60;95042.00;;;;7396861;19;20525;-79
2023/09/30 03:14:18;;;;;;;5.10;3.75;;;;;13.60;95037.00;;;;7396396;19;20144;-80
2023/09/30 03:16:46;;;;;;;6.38;3.88;;;;;13.50;95052.00;;;;7393802;19;20881;-80
2023/09/30 03:19:21;;;;;;;6.47;3.95;;;;;13.60;95059.00;;;;7395340;19;20150;-80
2023/09/30 03:21:49;;;;;;;5.75;3.60;;;;;13.60;95066.00;;;;7398217;19;20519;-80
2023/09/30 03:24:24;;;;;;;8.27;3.40;;;;;13.60;95066.00;;;;7395898;19;20157;-76
2023/09/30 03:26:52;;;;;;;6.50;3.85;;;;;13.50;94995.00;;;;7397123;19;20611;-75
2023/09/30 03:29:20;;;;;;;8.27;3.92;;;;;13.50;95054.00;;;;7394541;19;20172;-75
2023/09/30 03:31:54;;;;;;;7.57;3.92;;;;;13.50;95046.00;;;;7394915;19;20144;-75
2023/09/30 03:34:22;;;;;;;8.55;4.68;;;;;13.60;95044.00;;;;7396620;19;20611;-74
2023/09/30 03:36:58;;;;;;;6.88;4.20;;;;;13.50;95040.00;;;;7395345;19;20144;-74
2023/09/30 03:39:27;;;;;;;8.88;3.90;;;;;13.40;95032.00;;;;7396202;19;20133;-76
2023/09/30 03:42:03;;;;;;;5.32;3.95;;;;;13.40;95030.00;;;;7395315;19;20144;-75
2023/09/30 03:44:31;;;;;;;9.48;3.70;;;;;13.30;95030.00;;;;7396075;19;20140;-76
2023/09/30 03:47:07;;;;;;;6.05;4.10;;;;;13.30;95028.00;;;;7391737;19;20579;-75
2023/09/30 03:49:42;;;;;;;5.90;3.85;;;;;13.30;95029.00;;;;7394862;19;20140;-75
2023/09/30 03:52:11;;;;;;;5.95;3.75;;;;;13.30;95026.00;;;;7393676;19;20121;-74
2023/09/30 03:54:46;;;;;;;6.00;3.75;;;;;13.20;95036.00;;;;7396093;19;20132;-74
2023/09/30 03:57:16;;;;;;;6.45;3.60;;;;;13.20;95044.00;;;;7396114;19;20216;-73
2023/09/30 03:59:52;;;;;;;6.80;3.88;;;;;13.20;95038.00;;;;7394247;19;20618;-74
2023/09/30 04:02:21;;;;;;;5.07;3.90;;;;;13.20;95036.00;;;;7392742;19;20152;-75
2023/09/30 04:05:05;;;;;;;4.53;3.58;;;;;13.30;95038.00;;;;7394424;19;20192;-75
2023/09/30 04:07:34;;;;;;;6.95;4.05;;;;;13.30;94981.00;;;;7395122;19;20616;-74
2023/09/30 04:10:10;;;;;;;6.30;3.90;;;;;13.30;95046.00;;;;7394354;19;20244;-74
2023/09/30 04:12:38;;;;;;;5.72;3.65;;;;;13.30;95054.00;;;;7396171;19;20192;-74
2023/09/30 04:15:18;;;;;;;5.13;4.00;;;;;13.20;95047.00;;;;7396581;19;20534;-74
2023/09/30 04:17:47;;;;;;;7.20;3.95;;;;;13.20;95045.00;;;;7394665;19;20912;-74
2023/09/30 04:20:24;;;;;;;7.35;4.80;;;;;13.20;95046.00;;;;7394042;19;20147;-75
2023/09/30 04:22:57;;;;;;;7.75;4.25;;;;;13.10;95048.00;;;;7395156;19;20501;-76
2023/09/30 04:25:32;;;;;;;7.80;4.90;;;;;13.20;95042.00;;;;7394721;19;20557;-74
2023/09/30 04:28:02;;;;;;;7.93;4.78;;;;;13.10;95065.00;;;;7393868;19;20136;-74
2023/09/30 04:30:37;;;;;;;8.13;4.53;;;;;13.10;95056.00;;;;7393850;19;20144;-74
2023/09/30 04:33:13;;;;;;;7.10;4.43;;;;;13.10;95059.00;;;;7394889;19;20168;-74
2023/09/30 04:35:48;;;;;;;7.13;4.22;;;;;13.20;95060.00;;;;7398300;19;20152;-75
2023/09/30 04:38:16;;;;;;;7.80;3.92;;;;;13.10;95070.00;;;;7399226;19;20466;-75
2023/09/30 04:40:51;;;;;;;7.10;4.15;;;;;13.10;95072.00;;;;7398801;19;20200;-74
2023/09/30 04:43:29;;;;;;;9.38;4.30;;;;;13.10;95061.00;;;;7400714;19;20664;-75
2023/09/30 04:46:04;;;;;;;6.65;3.70;;;;;13.10;95065.00;;;;7401365;19;20587;-74
2023/09/30 04:48:42;;;;;;;8.25;4.28;;;;;13.10;95073.00;;;;7398992;19;20152;-74
2023/09/30 04:51:18;;;;;;;7.40;4.00;;;;;13.00;95072.00;;;;7400197;19;20160;-75
2023/09/30 04:53:54;;;;;;;7.13;4.13;;;;;13.00;95072.00;;;;7401130;19;20595;-75
2023/09/30 04:56:29;;;;;;;7.65;4.22;;;;;13.00;95079.00;;;;7399075;19;20639;-74
2023/09/30 04:58:58;;;;;;;9.15;3.97;;;;;13.10;95081.00;;;;7399095;19;20532;-76
2023/09/30 05:01:32;;;;;;;7.40;3.83;;;;;13.00;95087.00;;;;7400920;19;20136;-74
2023/09/30 05:04:13;;;;;;;5.80;3.80;;;;;13.00;95087.00;;;;7395669;19;20167;-74
2023/09/30 05:06:48;;;;;;;6.97;3.90;;;;;12.90;95085.00;;;;7398191;19;20484;-74
2023/09/30 05:09:16;;;;;;;7.38;3.85;;;;;12.80;95072.00;;;;7400637;19;20682;-74
2023/09/30 05:11:50;;;;;;;6.63;3.97;;;;;12.70;95079.00;;;;7397923;19;20159;-76
2023/09/30 05:14:20;;;;;;;6.28;3.50;;;;;12.70;95089.00;;;;7398871;19;20212;-74
2023/09/30 05:16:56;;;;;;;9.05;3.90;;;;;12.60;95079.00;;;;7397147;19;20199;-74
2023/09/30 05:19:24;;;;;;;6.07;3.55;;;;;12.50;95071.00;;;;7400331;19;20136;-75
2023/09/30 05:21:52;;;;;;;8.90;3.72;;;;;12.50;95062.00;;;;7395898;19;20524;-75
2023/09/30 05:24:28;;;;;;;8.20;3.53;;;;;12.30;95066.00;;;;7395019;19;20151;-75
2023/09/30 05:26:56;;;;;;;9.23;4.03;;;;;12.30;95075.00;;;;7397219;19;20141;-74
2023/09/30 05:29:33;;;;;;;8.52;3.80;;;;;12.10;95069.00;;;;7397634;19;20498;-74
2023/09/30 05:32:01;;;;;;;5.30;3.28;;;;;12.00;95063.00;;;;7397871;19;20148;-76
2023/09/30 05:34:35;;;;;;;6.93;4.28;;;;;12.10;95064.00;;;;7398522;19;20212;-75
2023/09/30 05:37:03;;;;;;;6.57;4.03;;;;;12.00;95069.00;;;;7399496;19;20474;-74
2023/09/30 05:39:31;;;;;;;9.98;3.88;;;;;12.00;95072.00;;;;7398170;19;20149;-74
2023/09/30 05:42:06;;;;;;;6.57;3.70;;;;;12.00;95062.00;;;;7399719;19;20516;-76
2023/09/30 05:44:42;;;;;;;10.63;4.20;;;;;11.90;95067.00;;;;7398904;19;20204;-74
2023/09/30 05:47:16;;;;;;;10.10;4.15;;;;;11.90;95082.00;;;;7394034;19;20156;-74
2023/09/30 05:49:44;;;;;;;12.27;4.97;;;;;12.00;95082.00;;;;7393482;19;20176;-75
2023/09/30 05:52:19;;;;;;;8.75;4.22;;;;;12.00;95085.00;;;;7398849;19;20158;-75
2023/09/30 05:54:48;;;;;;;9.40;4.72;;;;;12.00;95094.00;;;;7397256;19;20156;-76
2023/09/30 05:57:17;;;;;;;9.65;5.13;;;;;12.10;95082.00;;;;7391497;19;20584;-75
2023/09/30 05:59:52;;;;;;;14.38;5.32;;;;;12.10;95081.00;;;;7384146;19;20129;-75
2023/09/30 06:02:21;;;;;;;9.68;4.60;;;;;12.20;95081.00;;;;7384473;19;20209;-73
2023/09/30 06:05:03;;;;;;;7.10;4.45;;;;;12.20;95070.00;;;;7386383;19;20179;-77
2023/09/30 06:07:33;;;;;;;8.38;4.22;;;;;12.20;95074.00;;;;7383867;19;20502;-75
2023/09/30 06:10:09;;;;;;;8.77;4.43;;;;;12.20;95087.00;;;;7383590;19;20530;-74
2023/09/30 06:12:38;;;;;;;9.90;5.10;;;;;12.30;95091.00;;;;7385716;19;20156;-75
2023/09/30 06:15:14;;;;;;;7.78;4.68;;;;;12.50;95103.00;;;;7385289;19;20148;-74
2023/09/30 06:17:42;;;;;;;12.98;5.43;;;;;12.50;95112.00;;;;7383199;19;20144;-76
2023/09/30 06:20:17;;;;;;;12.48;5.20;;;;;12.70;95101.00;;;;7385117;19;20153;-76
2023/09/30 06:22:53;;;;;;;8.90;4.75;;;;;12.80;95106.00;;;;7386565;19;20200;-73
2023/09/30 06:25:23;;;;;;;7.70;5.18;;;;;13.00;95105.00;;;;7386246;19;20125;-75
2023/09/30 06:27:58;;;;;;;12.23;5.18;;;;;13.20;95102.00;;;;7383892;19;20163;-74
2023/09/30 06:30:33;;;;;;;8.32;5.13;;;;;13.30;95100.00;;;;7384585;19;20483;-74
2023/09/30 06:33:04;;;;;;;8.90;4.40;;;;;13.40;95108.00;;;;7385305;19;20145;-73
2023/09/30 06:35:50;;;;;;;14.68;5.60;;;;;13.20;95108.00;;;;7384730;19;20155;-74
2023/09/30 06:38:24;;;;;;;9.32;4.53;;;;;13.40;95106.00;;;;7383915;19;20148;-73
2023/09/30 06:40:59;;;;;;;8.48;4.88;;;;;13.50;95118.00;;;;7386019;19;20978;-73
2023/09/30 06:43:35;;;;;;;12.07;4.72;;;;;13.50;95114.00;;;;7383324;19;20609;-73
2023/09/30 06:46:12;;;;;;;6.40;4.03;;;;;13.80;95120.00;;;;7385951;19;20152;-76
2023/09/30 06:48:40;;;;;;;6.82;4.75;;;;;14.10;95121.00;;;;7386255;19;20579;-73
2023/09/30 06:51:17;;;;;;;7.38;4.90;;;;;13.80;95116.00;;;;7384416;19;23450;-73
2023/09/30 06:53:58;;;;;;;7.70;4.38;;;;;13.80;95120.00;;;;7382606;19;20156;-76
2023/09/30 06:56:27;;;;;;;7.00;3.95;;;;;13.80;95111.00;;;;7383165;19;20167;-79
2023/09/30 06:59:02;;;;;;;6.88;4.30;;;;;13.70;95110.00;;;;7381626;19;20153;-77
2023/09/30 07:01:36;;;;;;;6.90;4.38;;;;;13.90;95108.00;;;;7384596;19;20136;-77
2023/09/30 07:04:21;;;;;;;9.48;5.03;;;;;14.10;95107.00;;;;7384507;19;20244;-78
2023/09/30 07:06:56;;;;;;;7.35;4.03;;;;;14.00;95103.00;;;;7382644;19;20203;-78
2023/09/30 07:09:30;;;;;;;7.20;4.05;;;;;13.90;95097.00;;;;7382058;19;20591;-78
2023/09/30 07:12:04;;;;;;;6.45;4.22;;;;;14.20;95105.00;;;;7383921;19;20129;-77
2023/09/30 07:14:38;;;;;;;10.63;4.18;;;;;14.40;95114.00;;;;7384081;19;20611;-78
2023/09/30 07:17:12;;;;;;;6.38;3.55;;;;;14.60;95115.00;;;;7380854;19;20167;-77
2023/09/30 07:19:46;;;;;;;8.55;3.95;;;;;14.80;95114.00;;;;7383521;19;20129;-77
2023/09/30 07:22:22;;;;;;;5.20;3.30;;;;;15.00;95126.00;;;;7383862;19;20155;-78
2023/09/30 07:25:00;;;;;;;8.63;3.75;;;;;15.10;95134.00;;;;7382865;19;20627;-78
2023/09/30 07:27:28;;;;;;;7.32;3.92;;;;;15.60;95142.00;;;;7382925;19;20674;-77
2023/09/30 07:30:06;;;;;;;5.88;3.42;;;;;16.10;95144.00;;;;7384950;19;20522;-78
2023/09/30 07:32:34;;;;;;;7.65;4.10;;;;;16.30;95138.00;;;;7379931;19;20141;-79
2023/09/30 07:35:09;;;;;;;9.18;4.05;;;;;16.30;95138.00;;;;7382062;19;20140;-77
2023/09/30 07:37:44;;;;;;;6.38;3.42;;;;;16.30;95137.00;;;;7383295;19;20136;-79
2023/09/30 07:40:21;;;;;;;9.02;3.60;;;;;16.40;95149.00;;;;7382116;19;20152;-79
2023/09/30 07:42:49;;;;;;;9.75;4.30;;;;;16.00;95156.00;;;;7379867;19;20121;-79
2023/09/30 07:45:17;;;;;;;7.85;4.20;;;;;16.10;95158.00;;;;7383195;19;20590;-79
2023/09/30 07:47:52;;;;;;;9.55;4.05;;;;;16.10;95157.00;;;;7381344;19;20953;-79
2023/09/30 07:50:20;;;;;;;6.97;3.97;;;;;15.90;95154.00;;;;7381663;19;20132;-78
2023/09/30 07:52:48;;;;;;;9.90;4.35;;;;;16.10;95158.00;;;;7381543;19;20153;-79
2023/09/30 07:55:23;;;;;;;5.72;3.65;;;;;16.20;95153.00;;;;7381137;19;20171;-79
2023/09/30 07:57:51;;;;;;;4.53;3.33;;;;;16.10;95147.00;;;;7384295;19;20473;-78
2023/09/30 08:00:26;;;;;;;6.32;3.47;;;;;16.40;95143.00;;;;7381095;19;20208;-79
2023/09/30 08:02:54;;;;;;;9.50;3.83;;;;;16.50;95140.00;;;;7379359;19;20576;-79
2023/09/30 08:05:37;;;;;;;5.97;3.28;;;;;16.40;95071.00;;;;7383725;19;20160;-79
2023/09/30 08:08:05;;;;;;;9.73;3.67;;;;;16.60;95137.00;;;;7382975;19;20164;-77
2023/09/30 08:10:39;;;;;;;6.68;3.20;;;;;16.30;95144.00;;;;7380176;19;20149;-78
2023/09/30 08:13:13;;;;;;;7.50;3.50;;;;;16.10;95140.00;;;;7382532;19;20480;-78
2023/09/30 08:15:49;;;;;;;5.95;3.33;;;;;16.30;95137.00;;;;7382055;19;20591;-77
2023/09/30 08:18:16;;;;;;;6.68;3.22;;;;;16.40;95144.00;;;;7383097;19;20132;-79
2023/09/30 08:20:50;;;;;;;6.13;3.45;;;;;16.80;95145.00;;;;7384455;19;20576;-80
2023/09/30 08:23:24;;;;;;;7.55;3.00;;;;;16.90;95145.00;;;;7384149;19;20128;-78
2023/09/30 08:25:59;;;;;;;7.60;3.80;;;;;17.20;95145.00;;;;7380420;19;20141;-79
2023/09/30 08:28:35;;;;;;;6.75;3.50;;;;;16.90;95139.00;;;;7381792;19;20154;-78
2023/09/30 08:31:09;;;;;;;5.47;2.83;;;;;17.10;95146.00;;;;7379786;19;20731;-79
2023/09/30 08:33:37;;;;;;;5.20;3.33;;;;;17.40;95146.00;;;;7380389;19;20137;-79
2023/09/30 08:36:12;;;;;;;5.70;3.55;;;;;17.70;95137.00;;;;7377601;19;20140;-79
2023/09/30 08:38:41;;;;;;;6.72;3.85;;;;;18.10;95119.00;;;;7378613;19;20159;-80
2023/09/30 08:41:33;;;;;;;6.38;3.17;;;;;18.50;95120.00;;;;7382286;19;20570;-80
2023/09/30 08:44:03;;;;;;;6.95;3.30;;;;;19.20;95120.00;;;;7376312;19;20603;-78
2023/09/30 08:46:38;;;;;;;6.13;3.38;;;;;19.40;95126.00;;;;7381550;19;20168;-80
2023/09/30 08:49:07;;;;;;;5.38;3.33;;;;;19.60;95121.00;;;;7377800;19;20125;-78
2023/09/30 08:51:42;;;;;;;6.03;3.00;;;;;19.70;95115.00;;;;7377698;19;20169;-78
2023/09/30 08:54:12;;;;;;;7.30;3.70;;;;;19.80;95114.00;;;;7381262;19;20132;-79
2023/09/30 08:56:43;;;;;;;5.90;3.30;;;;;19.50;95121.00;;;;7377955;19;20555;-77
2023/09/30 08:59:18;;;;;;;6.93;3.60;;;;;19.20;95136.00;;;;7376121;19;20148;-78
2023/09/30 09:02:00;;;;;;;6.32;3.53;;;;;18.60;95137.00;;;;7379425;19;20125;-80
2023/09/30 09:04:49;;;;;;;6.05;3.42;;;;;18.40;95143.00;;;;7378351;19;20587;-78
2023/09/30 09:07:23;;;;;;;7.00;3.55;;;;;18.70;95133.00;;;;7375955;19;20124;-78
2023/09/30 09:10:05;;;;;;;6.95;3.50;;;;;19.10;95138.00;;;;7375735;19;20140;-78
2023/09/30 09:12:54;;;;;;;10.52;4.07;;;;;19.70;95128.00;;;;7379798;19;20236;-79
2023/09/30 09:15:29;;;;;;;5.80;3.33;;;;;20.30;95132.00;;;;7377315;19;20604;-79
2023/09/30 09:17:59;;;;;;;4.75;3.15;;;;;20.60;95132.00;;;;7376298;19;20248;-78
2023/09/30 09:20:27;;;;;;;5.65;3.55;;;;;20.20;95124.00;;;;7381776;19;20136;-78
2023/09/30 09:23:01;;;;;;;5.97;3.58;;;;;20.20;95119.00;;;;7384356;19;20148;-78
2023/09/30 09:25:37;;;;;;;8.50;4.05;;;;;19.50;95135.00;;;;7381862;19;20208;-77
2023/09/30 09:28:12;;;;;;;7.75;3.97;;;;;18.90;95131.00;;;;7384753;19;20136;-79
2023/09/30 09:30:41;;;;;;;8.23;4.25;;;;;18.70;95122.00;;;;7387185;19;20640;-77
2023/09/30 09:33:15;;;;;;;7.28;3.92;;;;;19.00;95120.00;;;;7384207;19;20132;-79
2023/09/30 09:35:48;;;;;;;7.50;3.63;;;;;19.20;95133.00;;;;7381681;19;20148;-77
2023/09/30 09:38:22;;;;;;;5.75;3.50;;;;;19.50;95119.00;;;;7384910;19;20683;-80
2023/09/30 09:41:00;;;;;;;8.57;4.25;;;;;20.10;95105.00;;;;7384391;19;20132;-77
2023/09/30 09:43:30;;;;;;;5.22;3.58;;;;;19.80;95113.00;;;;7382724;19;20188;-77
2023/09/30 09:46:08;;;;;;;7.38;4.15;;;;;20.10;95118.00;;;;7383352;19;20136;-79
2023/09/30 09:48:37;;;;;;;6.38;3.55;;;;;19.60;95116.00;;;;7383144;19;20121;-81
2023/09/30 09:51:12;;;;;;;6.25;3.33;;;;;20.10;95107.00;;;;7385004;19;20148;-81
2023/09/30 09:53:42;;;;;;;5.63;3.70;;;;;20.60;95120.00;;;;7383693;19;20125;-80
2023/09/30 09:56:19;;;;;;;5.65;3.60;;;;;21.10;95114.00;;;;7377162;19;20144;-77
2023/09/30 09:58:48;;;;;;;7.10;3.67;;;;;21.50;95110.00;;;;7383222;19;20140;-80
2023/09/30 10:01:23;;;;;;;7.68;3.97;;;;;21.80;95118.00;;;;7379712;19;20244;-79
2023/09/30 10:04:06;;;;;;;7.03;4.10;;;;;22.00;95126.00;;;;7374446;19;20248;-81
2023/09/30 10:06:39;;;;;;;7.35;4.03;;;;;20.90;95123.00;;;;7377137;19;20142;-80
2023/09/30 10:09:15;;;;;;;7.72;3.78;;;;;20.60;95110.00;;;;7381632;19;20136;-77
2023/09/30 10:11:43;;;;;;;6.43;3.67;;;;;20.50;95118.00;;;;7375944;19;20183;-80
2023/09/30 10:14:33;;;;;;;8.13;3.95;;;;;20.00;95123.00;;;;7374955;19;20168;-80
2023/09/30 10:17:07;;;;;;;9.07;4.15;;;;;19.90;95133.00;;;;7380559;19;20438;-77
2023/09/30 10:20:06;;;;;;;6.57;3.63;;;;;19.80;95130.00;;;;7384182;19;20153;-76
2023/09/30 10:22:34;;;;;;;5.95;3.75;;;;;19.80;95111.00;;;;7383966;19;20141;-80
2023/09/30 10:25:39;;;;;;;7.18;3.88;;;;;20.60;95119.00;;;;7383252;19;20996;-78
2023/09/30 10:28:32;;;;;;;8.27;3.60;;;;;20.60;95120.00;;;;7383493;19;20612;-79
2023/09/30 10:31:16;;;;;;;7.85;4.07;;;;;20.00;95120.00;;;;7383547;19;20137;-78
2023/09/30 10:33:59;;;;;;;7.32;3.70;;;;;19.90;95120.00;;;;7383585;19;20125;-77
2023/09/30 10:36:40;;;;;;;10.48;4.38;;;;;20.00;95124.00;;;;7383653;19;20148;-78
2023/09/30 10:39:13;;;;;;;6.80;3.58;;;;;19.80;95119.00;;;;7381717;19;20152;-76
2023/09/30 10:41:50;;;;;;;6.78;3.60;;;;;19.60;95131.00;;;;7382346;19;20125;-77
2023/09/30 10:44:27;;;;;;;8.68;3.45;;;;;19.60;95131.00;;;;7381124;19;20168;-77
2023/09/30 10:47:24;;;;;;;5.60;3.38;;;;;19.40;95121.00;;;;7371410;19;20231;-77
2023/09/30 10:49:53;;;;;;;7.00;3.67;;;;;19.40;95133.00;;;;7378462;19;20487;-79
2023/09/30 10:52:28;;;;;;;6.65;3.78;;;;;19.60;95120.00;;;;7371017;19;20125;-77
2023/09/30 10:55:05;;;;;;;4.03;3.15;;;;;19.30;95121.00;;;;7375932;19;20124;-77
2023/09/30 10:57:40;;;;;;;6.22;3.92;;;;;19.10;95123.00;;;;7373289;19;20146;-79
2023/09/30 11:00:16;;;;;;;7.68;3.75;;;;;19.10;95121.00;;;;7375031;19;20140;-79
2023/09/30 11:02:52;;;;;;;8.25;3.90;;;;;18.90;95106.00;;;;7372024;19;20176;-78
2023/09/30 11:05:37;;;;;;;7.32;3.80;;;;;18.60;95115.00;;;;7373704;19;20136;-78
2023/09/30 11:08:29;;;;;;;7.45;4.25;;;;;18.50;95110.00;;;;7372868;19;20645;-78
2023/09/30 11:11:03;;;;;;;7.03;3.72;;;;;19.70;95082.00;;;;7378331;19;20516;-78
2023/09/30 11:13:34;;;;;;;10.90;4.03;;;;;21.20;95086.00;;;;7379198;19;20479;-77
2023/09/30 11:16:08;;;;;;;10.00;4.13;;;;;22.20;95078.00;;;;7382153;19;20125;-78
2023/09/30 11:18:43;;;;;;;7.20;4.10;;;;;23.00;95073.00;;;;7382291;19;20128;-78
2023/09/30 11:21:17;;;;;;;6.30;3.67;;;;;23.50;95073.00;;;;7384782;19;20136;-77
2023/09/30 11:23:51;;;;;;;8.93;4.78;;;;;23.80;95059.00;;;;7381047;19;20990;-78
2023/09/30 11:26:41;;;;;;;8.52;4.70;;;;;23.70;95062.00;;;;7379911;19;20201;-79
2023/09/30 11:29:16;;;;;;;8.55;4.57;;;;;24.00;95059.00;;;;7383357;19;20129;-79
2023/09/30 11:31:47;;;;;;;9.07;4.75;;;;;24.90;95052.00;;;;7379503;19;20169;-77
2023/09/30 11:34:38;;;;;;;8.45;4.85;;;;;25.00;95055.00;;;;7380953;19;20135;-81
2023/09/30 11:37:15;;;;;;;8.32;4.70;;;;;25.60;95057.00;;;;7379403;19;20232;-77
2023/09/30 11:39:50;;;;;;;9.77;5.53;;;;;26.30;95062.00;;;;7380604;19;20124;-80
2023/09/30 11:42:24;;;;;;;7.55;4.90;;;;;25.70;95074.00;;;;7381470;19;20136;-79
2023/09/30 11:44:58;;;;;;;8.52;4.75;;;;;24.50;95077.00;;;;7380162;19;20163;-80
2023/09/30 11:47:30;;;;;;;8.73;4.80;;;;;23.80;95080.00;;;;7381278;19;20145;-82
2023/09/30 11:50:06;;;;;;;9.95;5.53;;;;;22.90;95081.00;;;;7380719;19;20152;-77
2023/09/30 11:52:35;;;;;;;8.95;4.53;;;;;20.70;95094.00;;;;7380628;19;20149;-81
2023/09/30 11:55:12;;;;;;;9.70;5.10;;;;;20.90;95091.00;;;;7383276;19;20135;-79
2023/09/30 11:57:40;;;;;;;7.88;4.60;;;;;20.60;95098.00;;;;7379427;19;20144;-78
2023/09/30 12:00:13;;;;;;;8.52;4.22;;;;;19.60;95113.00;;;;7376797;19;20178;-79
2023/09/30 12:02:48;;;;;;;6.10;4.32;;;;;19.70;95092.00;;;;7379109;19;20149;-80
2023/09/30 12:05:23;;;;;;;9.02;4.90;;;;;19.60;95126.00;;;;7382531;19;20168;-82
2023/09/30 12:08:01;;;;;;;7.63;4.28;;;;;19.30;95120.00;;;;7382875;19;20125;-79
2023/09/30 12:10:30;;;;;;;8.85;4.63;;;;;19.20;95125.00;;;;7379396;19;20476;-78
2023/09/30 12:13:05;;;;;;;9.45;4.80;;;;;19.40;95113.00;;;;7382138;19;20145;-79
2023/09/30 12:15:36;;;;;;;7.22;4.38;;;;;19.40;95114.00;;;;7381054;19;20918;-79
2023/09/30 12:18:13;;;;;;;8.80;4.38;;;;;19.90;95108.00;;;;7379802;19;20144;-77
2023/09/30 12:20:46;;;;;;;15.43;5.05;;;;;20.10;95114.00;;;;7378493;19;20148;-81
2023/09/30 12:23:21;;;;;;;9.93;4.60;;;;;20.10;95103.00;;;;7378054;19;20207;-81
2023/09/30 12:25:49;;;;;;;8.80;4.50;;;;;19.90;95085.00;;;;7379351;19;20148;-80
2023/09/30 12:28:40;;;;;;;10.70;5.10;;;;;19.90;95115.00;;;;7381965;19;20591;-81
2023/09/30 12:31:15;;;;;;;11.75;4.55;;;;;19.90;95113.00;;;;7378883;19;20148;-81
2023/09/30 12:33:51;;;;;;;10.00;4.43;;;;;20.00;95110.00;;;;7377975;19;20128;-79
2023/09/30 12:36:21;;;;;;;8.27;4.55;;;;;20.00;95106.00;;;;7380649;19;20142;-80
2023/09/30 12:38:55;;;;;;;7.95;4.35;;;;;20.30;95089.00;;;;7376234;19;20168;-78
2023/09/30 12:41:32;;;;;;;12.07;4.55;;;;;22.20;95071.00;;;;7378460;19;20140;-79
2023/09/30 12:44:11;;;;;;;9.77;4.55;;;;;23.90;95076.00;;;;7379430;19;20136;-76
2023/09/30 12:46:39;;;;;;;6.97;4.38;;;;;24.00;95084.00;;;;7375747;19;20724;-73
2023/09/30 12:49:20;;;;;;;7.15;4.22;;;;;22.90;95095.00;;;;7376314;19;20934;-75
2023/09/30 12:51:48;;;;;;;9.05;4.70;;;;;22.00;95092.00;;;;7380931;19;20128;-77